createdAt,value
2019-01-23T00:01:29.603Z,10.82
2019-01-23T00:04:36.487Z,14.15
2019-01-23T00:07:43.440Z,15.43
2019-01-23T00:10:50.352Z,17.85
2019-01-23T00:14:00.431Z,18.02
2019-01-23T00:17:07.339Z,17.50
2019-01-23T00:20:15.375Z,13.43
2019-01-23T00:23:25.102Z,15.38
2019-01-23T00:26:32.045Z,13.13
2019-01-23T00:29:39.009Z,15.72
2019-01-23T00:32:46.013Z,16.20
2019-01-23T00:35:53.077Z,13.93
2019-01-23T00:39:02.634Z,16.12
2019-01-23T00:42:09.528Z,16.75
2019-01-23T00:45:16.703Z,12.93
2019-01-23T00:48:23.613Z,18.35
2019-01-23T00:51:31.641Z,13.88
2019-01-23T00:54:38.644Z,15.93
2019-01-23T00:57:45.624Z,12.23
2019-01-23T01:00:52.545Z,10.28
2019-01-23T01:04:02.726Z,13.28
2019-01-23T01:07:09.619Z,12.05
2019-01-23T01:10:17.689Z,9.45
2019-01-23T01:13:24.606Z,11.28
2019-01-23T01:16:31.612Z,13.28
2019-01-23T01:19:38.529Z,14.73
2019-01-23T01:22:45.552Z,15.10
2019-01-23T01:25:52.706Z,16.30
2019-01-23T01:29:02.777Z,14.15
2019-01-23T01:32:09.673Z,14.95
2019-01-23T01:35:16.669Z,11.70
2019-01-23T01:38:23.582Z,13.53
2019-01-23T01:41:30.533Z,13.95
2019-01-23T01:44:37.416Z,15.80
2019-01-23T01:47:44.386Z,12.85
2019-01-23T01:50:51.287Z,12.63
2019-01-23T01:54:00.721Z,10.20
2019-01-23T01:57:10.682Z,16.50
2019-01-23T02:00:26.829Z,6.95
2019-01-23T02:03:33.738Z,10.82
2019-01-23T02:06:40.694Z,13.53
2019-01-23T02:09:47.729Z,15.55
2019-01-23T02:12:54.917Z,13.90
2019-01-23T02:16:01.896Z,14.13
2019-01-23T02:19:12.778Z,15.10
2019-01-23T02:22:19.719Z,16.40
2019-01-23T02:25:26.865Z,10.95
2019-01-23T02:28:33.788Z,12.50
2019-01-23T02:31:40.750Z,12.85
2019-01-23T02:34:47.756Z,15.85
2019-01-23T02:37:54.736Z,12.28
2019-01-23T02:41:01.643Z,12.50
2019-01-23T02:44:11.247Z,14.87
2019-01-23T02:47:18.186Z,13.53
2019-01-23T02:50:25.215Z,14.45
2019-01-23T02:53:32.121Z,14.13
2019-01-23T02:56:40.222Z,14.23
2019-01-23T02:59:47.132Z,12.30
2019-01-23T03:02:54.140Z,12.30
2019-01-23T03:06:01.230Z,10.72
2019-01-23T03:09:10.160Z,13.15
2019-01-23T03:12:20.103Z,13.70
2019-01-23T03:15:27.118Z,13.18
2019-01-23T03:18:34.036Z,13.55
2019-01-23T03:21:41.103Z,15.18
2019-01-23T03:24:48.020Z,12.93
2019-01-23T03:27:54.980Z,15.03
2019-01-23T03:31:01.902Z,11.63
2019-01-23T03:34:14.091Z,12.95
2019-01-23T03:37:21.036Z,14.30
2019-01-23T03:40:28.250Z,13.32
2019-01-23T03:43:35.166Z,11.00
2019-01-23T03:46:42.307Z,10.85
2019-01-23T03:49:49.220Z,10.03
2019-01-23T03:52:56.188Z,11.63
2019-01-23T03:56:03.087Z,11.75
2019-01-23T03:59:12.113Z,10.23
2019-01-23T04:02:19.020Z,11.78
2019-01-23T04:05:26.053Z,14.43
2019-01-23T04:08:32.949Z,13.18
2019-01-23T04:11:39.899Z,13.55
2019-01-23T04:14:46.807Z,11.12
2019-01-23T04:17:53.748Z,13.48
2019-01-23T04:21:00.743Z,11.95
2019-01-23T04:24:07.992Z,13.00
2019-01-23T04:27:16.310Z,14.65
2019-01-23T04:30:26.341Z,13.75
2019-01-23T04:33:33.291Z,14.05
2019-01-23T04:36:40.236Z,11.48
2019-01-23T04:39:47.150Z,14.40
2019-01-23T04:42:54.112Z,14.00
2019-01-23T04:46:01.007Z,15.80
2019-01-23T04:49:08.336Z,16.10
2019-01-23T04:52:36.012Z,13.83
2019-01-23T04:55:43.156Z,10.88
2019-01-23T04:58:50.078Z,10.28
2019-01-23T05:01:57.233Z,15.18
2019-01-23T05:05:04.588Z,16.42
2019-01-23T05:08:14.473Z,10.00
2019-01-23T05:11:21.371Z,16.85
2019-01-23T05:14:28.307Z,9.63
2019-01-23T05:17:35.215Z,10.40
2019-01-23T05:20:42.162Z,12.45
2019-01-23T05:23:49.079Z,14.50
2019-01-23T05:26:56.023Z,11.55
2019-01-23T05:30:05.133Z,8.65
2019-01-23T05:33:12.087Z,12.80
2019-01-23T05:36:19.241Z,13.78
2019-01-23T05:39:26.890Z,14.23
2019-01-23T05:42:33.828Z,11.88
2019-01-23T05:45:40.794Z,13.60
2019-01-23T05:48:47.714Z,11.50
2019-01-23T05:51:54.698Z,11.88
2019-01-23T05:55:01.610Z,12.23
2019-01-23T05:58:10.087Z,13.88
2019-01-23T06:01:17.818Z,13.10
2019-01-23T06:04:25.080Z,9.78
2019-01-23T06:07:32.017Z,14.50
2019-01-23T06:10:39.038Z,14.90
2019-01-23T06:13:45.986Z,12.33
2019-01-23T06:16:52.988Z,10.32
2019-01-23T06:19:59.886Z,13.45
2019-01-23T06:23:06.852Z,9.75
2019-01-23T06:26:14.038Z,12.58
2019-01-23T06:29:21.402Z,10.68
2019-01-23T06:32:28.422Z,13.88
2019-01-23T06:35:35.338Z,13.62
2019-01-23T06:38:42.262Z,12.47
2019-01-23T06:41:49.222Z,18.45
2019-01-23T06:44:56.125Z,10.13
2019-01-23T06:48:03.076Z,12.33
2019-01-23T06:51:10.109Z,12.03
2019-01-23T06:54:22.287Z,12.20
2019-01-23T06:57:29.202Z,13.45
2019-01-23T07:00:36.132Z,12.20
2019-01-23T07:03:43.056Z,18.05
2019-01-23T07:06:50.505Z,13.90
2019-01-23T07:09:57.421Z,16.80
2019-01-23T07:13:04.364Z,15.10
2019-01-23T07:16:11.555Z,17.40
2019-01-23T07:19:19.198Z,14.47
2019-01-23T07:22:26.233Z,13.53
2019-01-23T07:25:33.177Z,17.62
2019-01-23T07:28:40.089Z,16.00
2019-01-23T07:31:47.091Z,16.20
2019-01-23T07:34:54.043Z,12.68
2019-01-23T07:38:01.316Z,15.25
2019-01-23T07:41:08.243Z,14.55
2019-01-23T07:44:17.076Z,15.23
2019-01-23T07:47:23.995Z,15.68
2019-01-23T07:50:31.282Z,20.82
2019-01-23T07:53:38.202Z,15.65
2019-01-23T07:56:45.162Z,17.45
2019-01-23T07:59:52.086Z,13.18
2019-01-23T08:02:59.937Z,17.77
2019-01-23T08:06:06.870Z,20.25
2019-01-23T08:09:14.429Z,15.83
2019-01-23T08:12:21.368Z,16.80
2019-01-23T08:15:36.563Z,16.97
2019-01-23T08:18:43.485Z,14.23
2019-01-23T08:21:50.764Z,14.53
2019-01-23T08:24:57.663Z,12.50
2019-01-23T08:28:05.003Z,18.87
2019-01-23T08:31:14.363Z,16.23
2019-01-23T08:34:21.339Z,15.50
2019-01-23T08:37:28.515Z,20.12
2019-01-23T08:40:35.437Z,15.23
2019-01-23T08:43:42.329Z,18.35
2019-01-23T08:46:49.315Z,17.50
2019-01-23T08:49:56.198Z,14.43
2019-01-23T08:53:03.171Z,14.60
2019-01-23T08:56:10.048Z,14.18
2019-01-23T08:59:17.004Z,20.60
2019-01-23T09:02:23.975Z,16.10
2019-01-23T09:05:30.897Z,18.80
2019-01-23T09:08:37.983Z,20.52
2019-01-23T09:11:45.403Z,17.92
2019-01-23T09:14:52.332Z,18.00
2019-01-23T09:17:59.281Z,20.40
2019-01-23T09:21:06.171Z,20.52
2019-01-23T09:24:14.794Z,17.77
2019-01-23T09:27:24.431Z,17.48
2019-01-23T09:30:54.581Z,16.90
2019-01-23T09:34:51.221Z,19.27
2019-01-23T09:38:19.760Z,17.73
2019-01-23T09:42:41.677Z,19.20
2019-01-23T09:46:35.172Z,19.70
2019-01-23T09:50:20.541Z,15.70
2019-01-23T09:53:46.354Z,13.62
2019-01-23T09:56:53.235Z,16.17
2019-01-23T10:00:00.264Z,19.52
2019-01-23T10:03:07.371Z,21.62
2019-01-23T10:06:14.300Z,10.10
2019-01-23T10:09:23.314Z,16.95
2019-01-23T10:12:30.663Z,15.90
2019-01-23T10:15:51.029Z,17.87
2019-01-23T10:18:57.944Z,15.53
2019-01-23T10:22:04.837Z,15.90
2019-01-23T10:25:22.979Z,15.48
2019-01-23T10:28:30.059Z,15.03
2019-01-23T10:31:37.046Z,17.77
2019-01-23T10:34:43.933Z,17.25
2019-01-23T10:37:50.864Z,20.82
2019-01-23T10:40:57.753Z,16.97
2019-01-23T10:44:04.982Z,14.30
2019-01-23T10:47:11.947Z,16.90
2019-01-23T10:50:19.107Z,23.02
2019-01-23T10:53:25.911Z,13.90
2019-01-23T10:56:32.827Z,19.40
2019-01-23T10:59:39.715Z,20.48
2019-01-23T11:02:46.727Z,14.90
2019-01-23T11:05:53.803Z,15.63
2019-01-23T11:09:01.012Z,15.25
2019-01-23T11:12:09.565Z,20.48
2019-01-23T11:15:17.133Z,19.75
2019-01-23T11:18:26.377Z,25.17
2019-01-23T11:21:33.279Z,23.90
2019-01-23T11:24:40.159Z,19.98
2019-01-23T11:27:47.955Z,14.47
2019-01-23T11:30:54.747Z,19.48
2019-01-23T11:34:01.607Z,19.35
2019-01-23T11:37:08.452Z,18.07
2019-01-23T11:40:25.618Z,21.80
2019-01-23T11:43:32.494Z,23.80
2019-01-23T11:46:39.337Z,18.50
2019-01-23T11:49:46.199Z,26.97
2019-01-23T11:52:54.742Z,15.08
2019-01-23T11:56:01.619Z,17.77
2019-01-23T11:59:08.545Z,21.80
2019-01-23T12:02:15.546Z,21.30
2019-01-23T12:05:24.951Z,14.38
2019-01-23T12:08:31.827Z,17.52
2019-01-23T12:11:38.740Z,23.73
2019-01-23T12:14:45.627Z,18.95
2019-01-23T12:17:53.203Z,19.60
2019-01-23T12:21:00.110Z,9.08
2019-01-23T12:24:07.457Z,20.10
2019-01-23T12:27:17.576Z,20.37
2019-01-23T12:30:31.070Z,13.32
2019-01-23T12:33:37.948Z,22.22
2019-01-23T12:36:46.087Z,18.85
2019-01-23T12:39:52.974Z,27.95
2019-01-23T12:43:00.010Z,18.00
2019-01-23T12:46:07.035Z,17.17
2019-01-23T12:49:14.055Z,18.87
2019-01-23T12:52:21.532Z,19.80
2019-01-23T12:55:28.653Z,19.70
2019-01-23T12:58:36.648Z,20.52
2019-01-23T13:01:44.068Z,18.10
2019-01-23T13:04:50.939Z,18.70
2019-01-23T13:07:57.888Z,13.45
2019-01-23T13:11:05.214Z,19.65
2019-01-23T13:14:12.467Z,20.02
2019-01-23T13:17:19.355Z,22.62
2019-01-23T13:20:28.257Z,18.77
2019-01-23T13:23:36.436Z,20.60
2019-01-23T13:26:43.430Z,23.30
2019-01-23T13:29:51.419Z,21.30
2019-01-23T13:32:58.518Z,25.25
2019-01-23T13:36:06.064Z,23.67
2019-01-23T13:39:19.300Z,20.30
2019-01-23T13:42:31.565Z,18.07
2019-01-23T13:45:41.833Z,21.05
2019-01-23T13:48:48.970Z,22.25
2019-01-23T13:51:55.894Z,22.05
2019-01-23T13:55:02.788Z,19.32
2019-01-23T13:58:11.602Z,24.43
2019-01-23T14:01:18.746Z,21.73
2019-01-23T14:04:26.215Z,26.48
2019-01-23T14:07:33.123Z,21.57
2019-01-23T14:10:40.037Z,20.05
2019-01-23T14:13:46.916Z,25.55
2019-01-23T14:16:53.861Z,21.02
2019-01-23T14:20:00.763Z,25.23
2019-01-23T14:23:22.148Z,15.70
2019-01-23T14:26:29.745Z,26.02
2019-01-23T14:29:36.750Z,22.30
2019-01-23T14:32:43.651Z,20.62
2019-01-23T14:35:51.012Z,23.45
2019-01-23T14:38:57.912Z,24.12
2019-01-23T14:42:04.916Z,25.05
2019-01-23T14:45:12.579Z,23.02
2019-01-23T14:48:20.795Z,19.82
2019-01-23T14:51:27.671Z,23.12
2019-01-23T14:54:34.586Z,23.83
2019-01-23T14:57:41.899Z,21.17
2019-01-23T15:00:48.967Z,23.45
2019-01-23T15:03:55.899Z,23.38
2019-01-23T15:07:03.104Z,22.35
2019-01-23T15:10:15.331Z,22.35
2019-01-23T15:13:22.253Z,27.05
2019-01-23T15:16:29.141Z,18.23
2019-01-23T15:19:37.467Z,20.72
2019-01-23T15:22:45.710Z,21.82
2019-01-23T15:25:54.829Z,19.25
2019-01-23T15:29:02.504Z,22.95
2019-01-23T15:32:09.508Z,18.90
2019-01-23T15:35:16.930Z,20.95
2019-01-23T15:38:24.281Z,17.85
2019-01-23T15:41:31.411Z,21.62
2019-01-23T15:44:38.329Z,14.23
2019-01-23T15:47:45.230Z,13.22
2019-01-23T15:50:54.960Z,10.78
2019-01-23T15:54:01.945Z,9.83
2019-01-23T15:57:08.855Z,12.85
2019-01-23T16:00:20.062Z,15.53
2019-01-23T16:03:27.310Z,11.15
2019-01-23T16:06:34.372Z,9.60
2019-01-23T16:09:41.282Z,12.60
2019-01-23T16:12:48.380Z,11.90
2019-01-23T16:15:55.360Z,12.85
2019-01-23T16:19:02.398Z,9.60
2019-01-23T16:22:11.421Z,8.53
2019-01-23T16:25:18.544Z,9.53
2019-01-23T16:28:26.371Z,11.78
2019-01-23T16:31:34.576Z,10.75
2019-01-23T16:34:41.833Z,13.35
2019-01-23T16:37:48.921Z,14.30
2019-01-23T16:40:57.033Z,15.00
2019-01-23T16:44:04.016Z,24.95
2019-01-23T16:47:10.996Z,13.95
2019-01-23T16:50:26.096Z,12.85
2019-01-23T16:53:43.462Z,13.03
2019-01-23T16:56:53.066Z,13.85
2019-01-23T17:00:00.093Z,9.05
2019-01-23T17:03:07.448Z,11.48
2019-01-23T17:06:15.924Z,15.28
2019-01-23T17:09:23.041Z,10.03
2019-01-23T17:12:29.976Z,13.48
2019-01-23T17:15:37.160Z,12.70
2019-01-23T17:18:44.078Z,14.18
2019-01-23T17:21:51.228Z,11.48
2019-01-23T17:24:59.271Z,15.65
2019-01-23T17:28:08.594Z,9.90
2019-01-23T17:31:24.056Z,15.25
2019-01-23T17:34:33.512Z,10.98
2019-01-23T17:37:45.373Z,18.20
2019-01-23T17:40:54.458Z,14.07
2019-01-23T17:44:02.892Z,10.98
2019-01-23T17:47:11.610Z,12.73
2019-01-23T17:50:21.679Z,17.70
2019-01-23T17:53:30.517Z,13.70
2019-01-23T17:56:41.469Z,10.40
2019-01-23T18:00:10.095Z,12.58
2019-01-23T18:03:18.722Z,12.10
2019-01-23T18:06:27.368Z,11.55
2019-01-23T18:09:35.620Z,12.00
2019-01-23T18:12:44.167Z,12.20
2019-01-23T18:15:51.330Z,16.45
2019-01-23T18:18:58.313Z,12.55
2019-01-23T18:22:05.811Z,12.40
2019-01-23T18:25:13.883Z,11.20
2019-01-23T18:28:20.848Z,16.45
2019-01-23T18:32:04.548Z,13.35
2019-01-23T18:35:43.485Z,12.13
2019-01-23T18:39:30.664Z,16.10
2019-01-23T18:43:32.596Z,11.80
2019-01-23T18:47:22.636Z,13.28
2019-01-23T18:51:12.572Z,21.05
2019-01-23T18:54:19.448Z,17.48
2019-01-23T18:57:28.757Z,16.77
2019-01-23T19:00:35.880Z,14.38
2019-01-23T19:03:43.799Z,19.30
2019-01-23T19:06:51.990Z,12.73
2019-01-23T19:09:58.964Z,16.82
2019-01-23T19:13:06.068Z,17.17
2019-01-23T19:16:13.402Z,15.75
2019-01-23T19:19:20.280Z,16.42
2019-01-23T19:22:28.278Z,18.30
2019-01-23T19:25:35.244Z,16.07
2019-01-23T19:28:43.201Z,20.43
2019-01-23T19:31:51.756Z,17.77
2019-01-23T19:34:58.738Z,26.65
2019-01-23T19:38:06.119Z,22.10
2019-01-23T19:41:12.976Z,22.75
2019-01-23T19:44:19.945Z,25.97
2019-01-23T19:47:26.867Z,24.90
2019-01-23T19:50:33.935Z,32.10
2019-01-23T19:53:41.068Z,30.00
2019-01-23T19:56:48.139Z,29.45
2019-01-23T19:59:55.039Z,33.80
2019-01-23T20:03:01.992Z,30.32
2019-01-23T20:06:08.908Z,31.70
2019-01-23T20:09:15.993Z,41.00
2019-01-23T20:12:22.918Z,46.00
2019-01-23T20:15:29.823Z,35.38
2019-01-23T20:18:36.975Z,33.20
2019-01-23T20:21:43.894Z,40.65
2019-01-23T20:24:51.026Z,38.02
2019-01-23T20:27:58.008Z,39.88
2019-01-23T20:31:04.932Z,34.15
2019-01-23T20:34:12.150Z,30.85
2019-01-23T20:37:23.373Z,31.80
2019-01-23T20:40:27.847Z,31.65
2019-01-23T20:43:38.160Z,32.85
2019-01-23T20:46:47.694Z,28.98
2019-01-23T20:49:55.743Z,32.30
2019-01-23T20:53:02.741Z,29.65
2019-01-23T20:56:09.656Z,30.48
2019-01-23T20:59:16.692Z,32.17
2019-01-23T21:02:23.656Z,27.73
2019-01-23T21:05:30.611Z,39.42
2019-01-23T21:08:37.988Z,34.80
2019-01-23T21:11:44.856Z,33.38
2019-01-23T21:14:51.860Z,30.72
2019-01-23T21:17:58.761Z,27.82
2019-01-23T21:21:05.715Z,37.23
2019-01-23T21:24:12.588Z,30.32
2019-01-23T21:27:19.436Z,37.53
2019-01-23T21:30:27.831Z,37.90
2019-01-23T21:33:42.097Z,30.70
2019-01-23T21:36:46.558Z,31.17
2019-01-23T21:39:53.388Z,27.85
2019-01-23T21:43:02.978Z,25.75
2019-01-23T21:46:09.883Z,29.90
2019-01-23T21:49:16.742Z,32.30
2019-01-23T21:52:23.669Z,29.27
2019-01-23T21:55:30.562Z,31.12
2019-01-23T21:58:37.644Z,31.23
2019-01-23T22:01:44.747Z,29.82
2019-01-23T22:04:51.673Z,30.37
2019-01-23T22:07:58.710Z,35.95
2019-01-23T22:11:05.731Z,33.67
2019-01-23T22:14:12.645Z,29.23
2019-01-23T22:17:19.492Z,29.63
2019-01-23T22:20:26.594Z,33.88
2019-01-23T22:23:35.659Z,33.90
2019-01-23T22:26:42.702Z,34.88
2019-01-23T22:29:49.876Z,29.72
2019-01-23T22:32:56.747Z,34.80
2019-01-23T22:36:03.651Z,35.28
2019-01-23T22:39:11.030Z,35.92
2019-01-23T22:42:17.925Z,35.15
2019-01-23T22:45:24.808Z,34.23
2019-01-23T22:48:31.743Z,37.78
2019-01-23T22:51:38.662Z,36.10
2019-01-23T22:54:45.599Z,32.17
2019-01-23T22:57:54.548Z,38.95
2019-01-23T23:01:33.728Z,32.53
2019-01-23T23:04:41.815Z,33.18
2019-01-23T23:07:49.162Z,32.25
2019-01-23T23:10:58.905Z,30.23
2019-01-23T23:14:06.536Z,37.33
2019-01-23T23:17:13.418Z,36.35
2019-01-23T23:20:20.332Z,32.08
2019-01-23T23:23:27.211Z,35.30
2019-01-23T23:26:34.148Z,42.98
2019-01-23T23:29:41.021Z,44.03
2019-01-23T23:32:49.492Z,37.98
2019-01-23T23:35:57.646Z,36.48
2019-01-23T23:39:06.654Z,32.15
2019-01-23T23:42:13.886Z,39.38
2019-01-23T23:45:20.958Z,38.08
2019-01-23T23:48:27.749Z,34.63
2019-01-23T23:51:34.658Z,36.85
2019-01-23T23:54:41.536Z,46.13
2019-01-23T23:57:48.815Z,38.60
